Time;durP1;ratioP1;P1;durP2;ratioP2;P2;SDS_P1;SDS_P2;PMS_P1;PMS_P2;Temp;Humidity;BMP_temperature;BMP_pressure;BME280_temperature;BME280_humidity;BME280_pressure;Samples;Min_cycle;Max_cycle;Signal;HPM_P1;HPM_P2
2021/08/16 00:00:27;;;;;;;;;;;;;;;24.90;57.83;95320.25;1035834;28;1607;-69
2021/08/16 00:00:58;;;;;;;;;;;;;;;24.90;57.75;95319.47;1040069;28;1134;-70
2021/08/16 00:01:28;;;;;;;;;;;;;;;24.90;57.91;95324.75;1040513;28;708;-70
2021/08/16 00:01:58;;;;;;;;;;;;;;;24.90;57.76;95320.25;1046370;28;1112;-69
2021/08/16 00:02:28;;;;;;;;;;;;;;;24.90;57.66;95308.84;1048602;28;1126;-69
2021/08/16 00:02:59;;;;;;;;;;;;;;;24.90;57.56;95314.16;1048935;28;1182;-70
2021/08/16 00:03:29;;;;;;;;;;;;;;;24.89;57.54;95313.38;1049282;28;777;-70
2021/08/16 00:03:59;;;;;;;;;;;;;;;24.88;57.61;95311.81;1047234;28;2918;-71
2021/08/16 00:04:30;;;;;;;;;;;;;;;24.89;57.50;95308.06;1046571;28;2629;-70
2021/08/16 00:05:03;;;;;;;;;;;;;;;24.89;57.42;95318.69;1049019;28;1270;-70
2021/08/16 00:05:34;;;;;;;;;;;;;;;24.88;57.68;95321.66;1041830;28;1774;-70
2021/08/16 00:06:04;;;;;;;;;;;;;;;24.89;57.45;95317.91;1048908;28;1035;-70
2021/08/16 00:06:34;;;;;;;;;;;;;;;24.87;57.61;95317.44;1048744;28;1315;-70
2021/08/16 00:07:04;;;;;;;;;;;;;;;24.88;57.36;95317.13;1048274;28;1107;-70
2021/08/16 00:07:35;;;;;;;;;;;;;;;24.87;57.39;95310.25;1044639;28;1310;-70
2021/08/16 00:08:06;;;;;;;;;;;;;;;24.89;57.30;95317.91;1041593;28;1158;-70
2021/08/16 00:08:36;;;;;;;;;;;;;;;24.88;57.34;95305.75;1044685;28;1013;-71
2021/08/16 00:09:07;;;;;;;;;;;;;;;24.87;57.23;95307.59;1044319;28;1284;-70
2021/08/16 00:09:37;;;;;;;;;;;;;;;24.89;57.50;95312.63;1043599;28;2473;-69
2021/08/16 00:10:08;;;;;;;;;;;;;;;24.87;57.41;95304.19;1046654;28;1988;-70
2021/08/16 00:10:38;;;;;;;;;;;;;;;24.87;57.55;95306.84;1046437;28;1206;-70
2021/08/16 00:11:08;;;;;;;;;;;;;;;24.88;57.26;95311.81;1048640;28;1898;-70
2021/08/16 00:11:39;;;;;;;;;;;;;;;24.88;57.59;95300.44;1049085;28;1191;-70
2021/08/16 00:12:09;;;;;;;;;;;;;;;24.88;57.32;95303.09;1048516;28;1181;-70
2021/08/16 00:12:39;;;;;;;;;;;;;;;24.88;57.38;95303.09;1048355;28;1578;-70
2021/08/16 00:13:10;;;;;;;;;;;;;;;24.87;57.44;95298.88;1046822;28;1115;-70
2021/08/16 00:13:40;;;;;;;;;;;;;;;24.87;57.12;95298.88;1047916;28;1133;-70
2021/08/16 00:14:10;;;;;;;;;;;;;;;24.86;57.30;95297.31;1040493;28;1448;-70
2021/08/16 00:14:41;;;;;;;;;;;;;;;24.87;57.33;95298.88;1043142;28;2774;-69
2021/08/16 00:15:11;;;;;;;;;;;;;;;24.86;57.00;95292.81;1045313;28;2531;-70
2021/08/16 00:15:41;;;;;;;;;;;;;;;24.85;57.33;95295.78;1044250;28;1596;-70
2021/08/16 00:16:11;;;;;;;;;;;;;;;24.86;57.06;95292.81;1044472;28;1092;-70
2021/08/16 00:16:42;;;;;;;;;;;;;;;24.86;57.21;95294.66;1044593;28;1150;-70
2021/08/16 00:17:12;;;;;;;;;;;;;;;24.85;57.03;95296.53;1043964;28;1194;-70
2021/08/16 00:17:42;;;;;;;;;;;;;;;24.86;56.83;95297.31;1048535;28;1221;-70
2021/08/16 00:18:13;;;;;;;;;;;;;;;24.85;56.94;95298.41;1048839;28;1165;-70
2021/08/16 00:18:47;;;;;;;;;;;;;;;24.86;56.96;95294.66;1049055;28;777;-70
2021/08/16 00:19:17;;;;;;;;;;;;;;;24.86;56.79;95298.09;1048648;28;1283;-71
2021/08/16 00:19:48;;;;;;;;;;;;;;;24.85;56.59;95298.41;1048803;28;1233;-70
2021/08/16 00:20:18;;;;;;;;;;;;;;;24.84;56.75;95294.19;1047767;28;2776;-70
2021/08/16 00:20:48;;;;;;;;;;;;;;;24.83;56.70;95303.25;1048809;28;1082;-70
2021/08/16 00:21:19;;;;;;;;;;;;;;;24.84;56.52;95296.84;1048942;28;1181;-70
2021/08/16 00:21:49;;;;;;;;;;;;;;;24.83;56.70;95300.59;1048720;28;1205;-70
2021/08/16 00:22:19;;;;;;;;;;;;;;;24.83;56.45;95309.31;1048902;28;1025;-70
2021/08/16 00:22:49;;;;;;;;;;;;;;;24.83;56.55;95303.25;1048953;28;1114;-71
2021/08/16 00:23:20;;;;;;;;;;;;;;;24.82;56.52;95297.16;1049006;28;1232;-68
2021/08/16 00:23:50;;;;;;;;;;;;;;;24.82;56.37;95299.03;1047552;28;1948;-70
2021/08/16 00:24:20;;;;;;;;;;;;;;;24.82;56.15;95296.38;1048812;28;1121;-70
2021/08/16 00:24:51;;;;;;;;;;;;;;;24.82;56.42;95299.03;1047445;28;1666;-70
2021/08/16 00:25:21;;;;;;;;;;;;;;;24.81;56.31;95300.13;1047524;28;2788;-70
2021/08/16 00:25:51;;;;;;;;;;;;;;;24.80;56.24;95302.00;1047912;28;1103;-69
2021/08/16 00:26:22;;;;;;;;;;;;;;;24.80;56.16;95302.00;1048594;28;878;-70
2021/08/16 00:26:53;;;;;;;;;;;;;;;24.80;56.10;95302.00;1048483;28;1122;-70
2021/08/16 00:27:23;;;;;;;;;;;;;;;24.81;56.11;95310.75;1043896;28;1446;-70
2021/08/16 00:27:53;;;;;;;;;;;;;;;24.80;56.20;95304.66;1044540;28;1115;-69
2021/08/16 00:28:24;;;;;;;;;;;;;;;24.80;56.05;95301.22;1044524;28;1146;-70
2021/08/16 00:28:59;;;;;;;;;;;;;;;24.80;56.04;95306.50;1048526;28;2440;-70
2021/08/16 00:29:29;;;;;;;;;;;;;;;24.79;56.26;95307.63;1048782;28;1050;-71
2021/08/16 00:29:59;;;;;;;;;;;;;;;24.79;56.11;95297.00;1047957;28;2442;-70
2021/08/16 00:30:30;;;;;;;;;;;;;;;24.78;56.05;95306.03;1048654;28;709;-70
2021/08/16 00:31:01;;;;;;;;;;;;;;;24.78;55.93;95306.03;1048727;28;1978;-69
2021/08/16 00:31:31;;;;;;;;;;;;;;;24.78;55.86;95311.34;1048743;28;812;-70
2021/08/16 00:32:01;;;;;;;;;;;;;;;24.78;55.99;95306.03;1043288;28;2547;-70
2021/08/16 00:32:32;;;;;;;;;;;;;;;24.78;55.82;95311.34;1037949;28;2475;-71
2021/08/16 00:33:02;;;;;;;;;;;;;;;24.77;55.92;95304.50;1038107;28;2749;-70
2021/08/16 00:33:33;;;;;;;;;;;;;;;24.77;55.95;95310.56;1040372;28;1480;-70
2021/08/16 00:34:03;;;;;;;;;;;;;;;24.78;56.06;95308.69;1044483;28;1206;-70
2021/08/16 00:34:33;;;;;;;;;;;;;;;24.77;55.86;95312.44;1048921;28;1316;-70
2021/08/16 00:35:04;;;;;;;;;;;;;;;24.77;55.70;95309.81;1046668;28;2515;-70
2021/08/16 00:35:34;;;;;;;;;;;;;;;24.76;55.80;95311.66;1044709;28;1085;-70
2021/08/16 00:36:04;;;;;;;;;;;;;;;24.76;55.63;95309.00;1047335;28;1087;-70
2021/08/16 00:36:35;;;;;;;;;;;;;;;24.76;55.77;95310.88;1044283;28;1186;-70
2021/08/16 00:37:05;;;;;;;;;;;;;;;24.77;55.76;95304.50;1040072;28;1361;-70
2021/08/16 00:37:35;;;;;;;;;;;;;;;24.76;56.00;95306.38;1040321;28;1953;-70
2021/08/16 00:38:05;;;;;;;;;;;;;;;24.76;55.67;95303.72;1040176;28;1510;-70
2021/08/16 00:38:36;;;;;;;;;;;;;;;24.77;55.77;95309.81;1047034;28;1237;-70
2021/08/16 00:39:06;;;;;;;;;;;;;;;24.77;55.91;95307.16;1049322;28;1293;-70
2021/08/16 00:39:37;;;;;;;;;;;;;;;24.76;55.70;95310.88;1048277;28;1574;-70
2021/08/16 00:40:07;;;;;;;;;;;;;;;24.76;55.85;95309.00;1047101;28;2547;-70
2021/08/16 00:40:37;;;;;;;;;;;;;;;24.77;55.94;95307.16;1039722;28;1308;-70
2021/08/16 00:41:08;;;;;;;;;;;;;;;24.76;55.94;95305.56;1043582;28;1183;-70
2021/08/16 00:41:39;;;;;;;;;;;;;;;24.75;55.81;95301.38;1040231;28;1179;-70
2021/08/16 00:42:12;;;;;;;;;;;;;;;24.76;55.92;95310.88;1039073;28;1860;-70
2021/08/16 00:42:42;;;;;;;;;;;;;;;24.76;55.87;95313.53;1044243;28;1396;-70
2021/08/16 00:43:13;;;;;;;;;;;;;;;24.76;55.79;95311.66;1044290;28;1321;-70
2021/08/16 00:43:43;;;;;;;;;;;;;;;24.76;55.79;95316.19;1048202;28;1329;-70
2021/08/16 00:44:13;;;;;;;;;;;;;;;24.75;55.63;95307.44;1045064;28;1134;-70
2021/08/16 00:44:43;;;;;;;;;;;;;;;24.76;55.76;95316.97;1044159;28;1610;-71
2021/08/16 00:45:14;;;;;;;;;;;;;;;24.75;55.73;95314.63;1038035;28;2555;-70
2021/08/16 00:45:44;;;;;;;;;;;;;;;24.75;55.65;95320.69;1047948;28;1272;-69
2021/08/16 00:46:14;;;;;;;;;;;;;;;24.75;55.66;95315.41;1040293;28;1123;-70
2021/08/16 00:46:45;;;;;;;;;;;;;;;24.75;55.81;95318.03;1040577;28;1099;-70
2021/08/16 00:47:15;;;;;;;;;;;;;;;24.76;56.01;95313.53;1043669;28;844;-70
2021/08/16 00:47:45;;;;;;;;;;;;;;;24.76;55.87;95313.53;1044352;28;1182;-70
2021/08/16 00:48:15;;;;;;;;;;;;;;;24.76;55.71;95313.53;1048689;28;1260;-70
2021/08/16 00:48:46;;;;;;;;;;;;;;;24.76;56.02;95319.63;1043992;28;1274;-70
2021/08/16 00:49:17;;;;;;;;;;;;;;;24.76;55.73;95311.66;1043963;28;1205;-70
2021/08/16 00:49:47;;;;;;;;;;;;;;;24.76;55.91;95313.53;1040417;28;1201;-70
2021/08/16 00:50:17;;;;;;;;;;;;;;;24.77;55.87;95317.75;1040616;28;2482;-70
2021/08/16 00:50:47;;;;;;;;;;;;;;;24.75;55.77;95304.78;1045006;28;1906;-71
2021/08/16 00:51:18;;;;;;;;;;;;;;;24.77;55.76;95301.84;1042598;28;1864;-70
2021/08/16 00:51:48;;;;;;;;;;;;;;;24.75;55.99;95304.78;1041735;28;1161;-70
2021/08/16 00:52:18;;;;;;;;;;;;;;;24.75;55.68;95307.44;1041069;28;765;-70
2021/08/16 00:52:49;;;;;;;;;;;;;;;24.75;55.98;95307.44;1038668;28;2847;-70
2021/08/16 00:53:19;;;;;;;;;;;;;;;24.74;55.94;95303.25;1041040;28;804;-70
2021/08/16 00:53:49;;;;;;;;;;;;;;;24.75;55.75;95309.34;1045200;28;1217;-70
2021/08/16 00:54:19;;;;;;;;;;;;;;;24.75;55.89;95301.38;1045022;28;1801;-71
2021/08/16 00:54:50;;;;;;;;;;;;;;;24.74;56.10;95305.91;1045131;28;1114;-70
2021/08/16 00:55:21;;;;;;;;;;;;;;;24.75;56.17;95309.34;1038591;28;2828;-70
2021/08/16 00:55:51;;;;;;;;;;;;;;;24.74;56.01;95311.19;1036549;28;1120;-70
2021/08/16 00:56:26;;;;;;;;;;;;;;;24.75;55.92;95304.03;1037054;28;1045;-70
2021/08/16 00:57:01;;;;;;;;;;;;;;;24.74;55.87;95311.19;1034104;28;1164;-70
2021/08/16 00:57:31;;;;;;;;;;;;;;;24.75;55.94;95311.97;1041639;28;1006;-70
2021/08/16 00:58:01;;;;;;;;;;;;;;;24.74;56.07;95318.34;1042284;28;1195;-70
2021/08/16 00:58:32;;;;;;;;;;;;;;;24.75;56.07;95311.97;1046353;28;1162;-70
2021/08/16 00:59:02;;;;;;;;;;;;;;;24.74;56.06;95316.50;1049211;28;1295;-70
2021/08/16 00:59:33;;;;;;;;;;;;;;;24.76;55.90;95326.78;1049045;28;819;-69
2021/08/16 01:00:04;;;;;;;;;;;;;;;24.75;56.24;95323.34;1047926;28;2515;-70
2021/08/16 01:00:35;;;;;;;;;;;;;;;24.75;55.95;95325.25;1047923;28;2147;-70
2021/08/16 01:01:05;;;;;;;;;;;;;;;24.75;56.24;95326.00;1049401;28;1097;-70
2021/08/16 01:01:35;;;;;;;;;;;;;;;24.76;56.21;95318.84;1049121;28;1107;-70
2021/08/16 01:02:05;;;;;;;;;;;;;;;24.76;56.09;95318.84;1048611;28;1669;-70
2021/08/16 01:02:39;;;;;;;;;;;;;;;24.76;56.19;95321.47;1049336;28;816;-70
2021/08/16 01:03:09;;;;;;;;;;;;;;;24.76;55.96;95313.53;1049451;28;1255;-70
2021/08/16 01:03:40;;;;;;;;;;;;;;;24.76;56.22;95318.84;1049100;28;1138;-70
2021/08/16 01:04:10;;;;;;;;;;;;;;;24.77;56.26;95309.81;1046992;28;2868;-69
2021/08/16 01:04:40;;;;;;;;;;;;;;;24.76;56.43;95309.00;1045286;28;866;-70
2021/08/16 01:05:12;;;;;;;;;;;;;;;24.77;56.26;95312.44;1043213;28;2548;-70
2021/08/16 01:05:42;;;;;;;;;;;;;;;24.76;56.23;95313.53;1044818;28;799;-70
2021/08/16 01:06:12;;;;;;;;;;;;;;;24.76;56.23;95316.19;1049184;28;1250;-70
2021/08/16 01:06:43;;;;;;;;;;;;;;;24.76;56.31;95308.22;1045055;28;1497;-70
2021/08/16 01:07:13;;;;;;;;;;;;;;;24.77;56.25;95307.16;1044899;28;1242;-70
2021/08/16 01:07:44;;;;;;;;;;;;;;;24.76;56.21;95311.66;1045130;28;812;-70
2021/08/16 01:08:14;;;;;;;;;;;;;;;24.77;56.23;95307.16;1045108;28;1336;-70
2021/08/16 01:08:48;;;;;;;;;;;;;;;24.77;56.33;95309.81;1045192;28;1186;-70
2021/08/16 01:09:18;;;;;;;;;;;;;;;24.77;56.32;95307.91;1046572;28;1884;-70
2021/08/16 01:09:49;;;;;;;;;;;;;;;24.77;56.30;95310.56;1042888;28;1312;-70
2021/08/16 01:10:22;;;;;;;;;;;;;;;24.77;56.32;95313.22;1042947;28;2635;-70
2021/08/16 01:10:52;;;;;;;;;;;;;;;24.77;56.25;95307.16;1041532;28;1910;-70
2021/08/16 01:11:23;;;;;;;;;;;;;;;24.77;56.29;95310.56;1041342;28;1495;-70
2021/08/16 01:11:53;;;;;;;;;;;;;;;24.78;56.18;95306.84;1041431;28;1312;-70
2021/08/16 01:12:23;;;;;;;;;;;;;;;24.79;56.31;95312.91;1044644;28;839;-70
2021/08/16 01:13:02;;;;;;;;;;;;;;;24.77;56.12;95299.97;1046223;28;1179;-71
2021/08/16 01:13:33;;;;;;;;;;;;;;;24.79;56.38;95312.91;1050513;28;1236;-70
2021/08/16 01:14:04;;;;;;;;;;;;;;;24.79;56.17;95315.56;1047657;28;1340;-70
2021/08/16 01:14:40;;;;;;;;;;;;;;;24.79;56.46;95313.69;1045213;28;1604;-70
2021/08/16 01:15:11;;;;;;;;;;;;;;;24.79;56.42;95313.69;1043921;28;2454;-70
2021/08/16 01:15:52;;;;;;;;;;;;;;;24.79;56.52;95312.91;1045926;28;791;-70
2021/08/16 01:16:25;;;;;;;;;;;;;;;24.79;56.34;95310.28;1045331;28;1087;-70
2021/08/16 01:17:01;;;;;;;;;;;;;;;24.80;56.28;95303.88;1048711;28;1947;-69
2021/08/16 01:17:32;;;;;;;;;;;;;;;24.79;56.28;95299.66;1048742;28;1395;-70
2021/08/16 01:18:02;;;;;;;;;;;;;;;24.78;56.26;95298.88;1045026;28;1394;-70
2021/08/16 01:18:36;;;;;;;;;;;;;;;24.79;56.33;95300.44;1044844;28;1693;-69
2021/08/16 01:19:08;;;;;;;;;;;;;;;24.80;56.42;95295.91;1041455;28;1450;-70
2021/08/16 01:19:39;;;;;;;;;;;;;;;24.79;56.35;95297.00;1039384;28;1599;-70
2021/08/16 01:20:11;;;;;;;;;;;;;;;24.80;56.49;95293.25;1043324;28;2624;-70
2021/08/16 01:20:41;;;;;;;;;;;;;;;24.79;56.37;95295.13;1044976;28;2307;-70
2021/08/16 01:21:12;;;;;;;;;;;;;;;24.81;56.39;95294.84;1049316;28;1094;-69
2021/08/16 01:21:42;;;;;;;;;;;;;;;24.80;56.27;95301.22;1049506;28;1169;-70
2021/08/16 01:22:13;;;;;;;;;;;;;;;24.79;56.44;95303.06;1048163;28;1811;-70
2021/08/16 01:22:43;;;;;;;;;;;;;;;24.80;56.47;95314.47;1045020;28;839;-69
2021/08/16 01:23:13;;;;;;;;;;;;;;;24.80;56.41;95315.25;1037960;28;1269;-70
2021/08/16 01:23:44;;;;;;;;;;;;;;;24.81;56.51;95321.34;1032760;28;1203;-70
2021/08/16 01:24:15;;;;;;;;;;;;;;;24.81;56.19;95324.00;1041246;28;810;-70
2021/08/16 01:24:45;;;;;;;;;;;;;;;24.81;56.40;95326.66;1044953;28;1127;-69
2021/08/16 01:25:15;;;;;;;;;;;;;;;24.80;56.19;95319.78;1046167;28;2902;-71
2021/08/16 01:25:49;;;;;;;;;;;;;;;24.81;56.23;95329.28;1045127;28;1082;-69
2021/08/16 01:26:19;;;;;;;;;;;;;;;24.81;56.42;95329.28;1049629;28;1165;-70
2021/08/16 01:26:50;;;;;;;;;;;;;;;24.81;56.10;95331.94;1049391;28;1209;-70
2021/08/16 01:27:20;;;;;;;;;;;;;;;24.80;56.25;95340.97;1049117;28;1189;-70
2021/08/16 01:27:50;;;;;;;;;;;;;;;24.79;56.14;95334.13;1049355;28;1212;-70
2021/08/16 01:28:21;;;;;;;;;;;;;;;24.78;55.97;95333.34;1049675;28;709;-71
2021/08/16 01:28:51;;;;;;;;;;;;;;;24.78;56.14;95340.50;1048962;28;1529;-71
2021/08/16 01:29:21;;;;;;;;;;;;;;;24.77;56.08;95331.00;1049376;28;1229;-71
2021/08/16 01:29:52;;;;;;;;;;;;;;;24.77;55.95;95336.31;1046500;28;1131;-71
2021/08/16 01:30:22;;;;;;;;;;;;;;;24.77;55.80;95334.41;1047334;28;2466;-71
2021/08/16 01:30:56;;;;;;;;;;;;;;;24.76;56.20;95335.53;1048289;28;1957;-71
2021/08/16 01:31:27;;;;;;;;;;;;;;;24.76;56.02;95330.22;1049207;28;1161;-72
2021/08/16 01:31:58;;;;;;;;;;;;;;;24.76;55.95;95319.63;1048965;28;1111;-71
2021/08/16 01:32:28;;;;;;;;;;;;;;;24.75;55.85;95296.84;1041197;28;1318;-71
2021/08/16 01:32:58;;;;;;;;;;;;;;;24.75;55.85;95326.00;1044852;28;1142;-71
2021/08/16 01:33:29;;;;;;;;;;;;;;;24.75;55.93;95333.94;1044971;28;1495;-70
2021/08/16 01:33:59;;;;;;;;;;;;;;;24.75;55.79;95323.34;1044951;28;1182;-71
2021/08/16 01:34:32;;;;;;;;;;;;;;;24.75;55.94;95327.88;1045048;28;1387;-70
2021/08/16 01:35:02;;;;;;;;;;;;;;;24.74;56.09;95311.19;1044771;28;1115;-73
2021/08/16 01:35:33;;;;;;;;;;;;;;;24.73;55.92;95312.28;1043913;28;2555;-72
2021/08/16 01:36:03;;;;;;;;;;;;;;;24.73;55.96;95319.44;1045347;28;1099;-71
2021/08/16 01:36:33;;;;;;;;;;;;;;;24.73;56.01;95320.22;1049271;28;808;-71
2021/08/16 01:37:04;;;;;;;;;;;;;;;24.73;55.88;95320.22;1048967;28;1189;-71
2021/08/16 01:37:34;;;;;;;;;;;;;;;24.73;55.88;95314.13;1047910;28;1927;-71
2021/08/16 01:38:04;;;;;;;;;;;;;;;24.72;55.49;95307.25;1048106;28;1592;-70
2021/08/16 01:38:36;;;;;;;;;;;;;;;24.71;55.48;95316.31;1048127;28;1661;-69
2021/08/16 01:39:09;;;;;;;;;;;;;;;24.69;55.27;95319.25;1048980;28;1378;-72
2021/08/16 01:39:39;;;;;;;;;;;;;;;24.70;55.15;95317.38;1045553;28;1951;-71
2021/08/16 01:40:10;;;;;;;;;;;;;;;24.70;55.20;95331.44;1048903;28;1043;-70
2021/08/16 01:40:41;;;;;;;;;;;;;;;24.70;55.19;95322.69;1044827;28;2921;-70
2021/08/16 01:41:11;;;;;;;;;;;;;;;24.69;54.85;95326.44;1048522;28;1308;-71
2021/08/16 01:41:41;;;;;;;;;;;;;;;24.69;54.91;95334.41;1049139;28;1131;-71
2021/08/16 01:42:11;;;;;;;;;;;;;;;24.68;54.66;95338.13;1048487;28;1174;-70
2021/08/16 01:42:42;;;;;;;;;;;;;;;24.66;54.67;95338.44;1049297;28;819;-70
2021/08/16 01:43:12;;;;;;;;;;;;;;;24.66;54.60;95342.94;1049005;28;1146;-69
2021/08/16 01:43:42;;;;;;;;;;;;;;;24.64;54.27;95345.13;1049080;28;1257;-70
2021/08/16 01:44:14;;;;;;;;;;;;;;;24.63;54.36;95352.28;1049205;28;1249;-70
2021/08/16 01:44:45;;;;;;;;;;;;;;;24.63;54.27;95352.28;1049264;28;1270;-70
2021/08/16 01:45:15;;;;;;;;;;;;;;;24.63;54.39;95357.59;1048543;28;2442;-70
2021/08/16 01:45:46;;;;;;;;;;;;;;;24.61;54.34;95362.41;1048760;28;2001;-70
2021/08/16 01:46:16;;;;;;;;;;;;;;;24.62;54.10;95357.91;1049699;28;1049;-70
2021/08/16 01:46:46;;;;;;;;;;;;;;;24.61;54.03;95358.97;1049420;28;1188;-70
2021/08/16 01:47:17;;;;;;;;;;;;;;;24.60;54.41;95357.44;1048604;28;1034;-70
2021/08/16 01:47:47;;;;;;;;;;;;;;;24.60;54.37;95362.75;1049382;28;1161;-71
2021/08/16 01:48:17;;;;;;;;;;;;;;;24.59;54.53;95361.16;1047961;28;2006;-70
2021/08/16 01:48:47;;;;;;;;;;;;;;;24.59;54.26;95361.16;1044532;28;1634;-69
2021/08/16 01:49:18;;;;;;;;;;;;;;;24.60;54.45;95368.03;1040678;28;1323;-70
2021/08/16 01:49:48;;;;;;;;;;;;;;;24.59;54.28;95356.66;1036394;28;1231;-70
2021/08/16 01:50:18;;;;;;;;;;;;;;;24.59;54.44;95358.50;1040101;28;2479;-70
2021/08/16 01:50:48;;;;;;;;;;;;;;;24.60;54.44;95360.09;1037232;28;2569;-70
2021/08/16 01:51:19;;;;;;;;;;;;;;;24.58;54.49;95363.06;1040921;28;1898;-70
2021/08/16 01:51:49;;;;;;;;;;;;;;;24.59;54.68;95364.59;1044630;28;1154;-69
2021/08/16 01:52:19;;;;;;;;;;;;;;;24.59;54.74;95363.81;1047697;28;1226;-70
2021/08/16 01:52:50;;;;;;;;;;;;;;;24.59;54.84;95366.47;1052572;28;1149;-69
2021/08/16 01:53:20;;;;;;;;;;;;;;;24.59;54.70;95364.59;1049610;28;1153;-70
2021/08/16 01:53:50;;;;;;;;;;;;;;;24.59;54.86;95366.47;1048968;28;1629;-69
2021/08/16 01:54:21;;;;;;;;;;;;;;;24.59;54.73;95366.47;1048677;28;2091;-68
2021/08/16 01:54:51;;;;;;;;;;;;;;;24.59;55.06;95369.13;1048372;28;1637;-70
2021/08/16 01:55:21;;;;;;;;;;;;;;;24.60;55.06;95357.44;1048447;28;2516;-71
2021/08/16 01:55:52;;;;;;;;;;;;;;;24.59;54.87;95361.94;1047234;28;1875;-70
2021/08/16 01:56:22;;;;;;;;;;;;;;;24.59;54.95;95359.31;1049060;28;1955;-70
2021/08/16 01:56:52;;;;;;;;;;;;;;;24.59;55.06;95356.66;1044480;28;1625;-69
2021/08/16 01:57:23;;;;;;;;;;;;;;;24.60;55.27;95354.78;1044478;28;1102;-69
2021/08/16 01:57:53;;;;;;;;;;;;;;;24.60;55.01;95357.44;1044742;28;1119;-69
2021/08/16 01:58:23;;;;;;;;;;;;;;;24.61;55.05;95348.38;1045338;28;871;-69
2021/08/16 01:58:53;;;;;;;;;;;;;;;24.60;55.35;95347.63;1049028;28;1572;-69
2021/08/16 01:59:24;;;;;;;;;;;;;;;24.61;55.20;95349.19;1049308;28;1225;-69
2021/08/16 01:59:54;;;;;;;;;;;;;;;24.61;55.07;95343.88;1049245;28;1150;-69
2021/08/16 02:00:24;;;;;;;;;;;;;;;24.62;55.18;95339.38;1048021;28;2465;-70
2021/08/16 02:00:55;;;;;;;;;;;;;;;24.62;55.27;95339.38;1048122;28;2465;-69
2021/08/16 02:01:25;;;;;;;;;;;;;;;24.62;55.38;95342.00;1044735;28;1061;-69
2021/08/16 02:01:55;;;;;;;;;;;;;;;24.62;55.52;95339.38;1045900;28;1181;-69
2021/08/16 02:02:26;;;;;;;;;;;;;;;24.62;55.35;95336.72;1048562;28;836;-69
2021/08/16 02:02:56;;;;;;;;;;;;;;;24.64;55.54;95334.53;1049025;28;1182;-70
2021/08/16 02:03:26;;;;;;;;;;;;;;;24.63;55.68;95333.75;1049481;28;1157;-69
2021/08/16 02:03:56;;;;;;;;;;;;;;;24.64;55.55;95331.88;1047921;28;2180;-69
2021/08/16 02:04:27;;;;;;;;;;;;;;;24.65;55.63;95338.72;1047440;28;2515;-70
2021/08/16 02:04:57;;;;;;;;;;;;;;;24.64;55.68;95332.66;1048489;28;1138;-70
2021/08/16 02:05:27;;;;;;;;;;;;;;;24.64;55.80;95335.31;1043225;28;2433;-70
2021/08/16 02:05:57;;;;;;;;;;;;;;;24.64;55.80;95335.31;1040681;28;1084;-69
2021/08/16 02:06:28;;;;;;;;;;;;;;;24.65;55.92;95328.13;1045012;28;1134;-69
2021/08/16 02:06:58;;;;;;;;;;;;;;;24.65;55.68;95333.44;1039038;28;1302;-69
2021/08/16 02:07:28;;;;;;;;;;;;;;;24.65;55.79;95333.44;1047437;28;1163;-70
2021/08/16 02:07:59;;;;;;;;;;;;;;;24.66;55.84;95329.69;1051054;28;1094;-69
2021/08/16 02:08:29;;;;;;;;;;;;;;;24.66;55.88;95335.00;1044747;28;1218;-69
2021/08/16 02:08:59;;;;;;;;;;;;;;;24.66;56.09;95330.50;1044672;28;1300;-69
2021/08/16 02:09:30;;;;;;;;;;;;;;;24.66;55.87;95329.69;1044847;28;756;-69
2021/08/16 02:10:00;;;;;;;;;;;;;;;24.66;56.03;95319.88;1044806;28;1142;-69
2021/08/16 02:10:30;;;;;;;;;;;;;;;24.67;56.07;95325.94;1047069;28;2602;-69
2021/08/16 02:11:01;;;;;;;;;;;;;;;24.67;55.91;95325.94;1046198;28;2779;-69
2021/08/16 02:11:31;;;;;;;;;;;;;;;24.68;56.19;95330.16;1045014;28;1438;-69
2021/08/16 02:12:01;;;;;;;;;;;;;;;24.68;56.25;95324.88;1044882;28;1205;-68
2021/08/16 02:12:32;;;;;;;;;;;;;;;24.68;56.07;95319.56;1044281;28;1702;-68
2021/08/16 02:13:02;;;;;;;;;;;;;;;24.67;55.84;95316.13;1044357;28;1063;-69
2021/08/16 02:13:32;;;;;;;;;;;;;;;24.67;56.06;95320.66;1049088;28;1170;-69
2021/08/16 02:14:02;;;;;;;;;;;;;;;24.68;56.17;95323.00;1048863;28;1146;-70
2021/08/16 02:14:33;;;;;;;;;;;;;;;24.68;56.28;95324.88;1048788;28;1554;-69
2021/08/16 02:15:04;;;;;;;;;;;;;;;24.69;56.32;95318.50;1049316;28;1297;-69
2021/08/16 02:15:35;;;;;;;;;;;;;;;24.68;56.22;95316.91;1046641;28;2108;-69
2021/08/16 02:16:05;;;;;;;;;;;;;;;24.69;56.03;95318.50;1047901;28;1158;-69
2021/08/16 02:16:35;;;;;;;;;;;;;;;24.67;56.01;95318.78;1049886;28;981;-70
2021/08/16 02:17:06;;;;;;;;;;;;;;;24.69;56.18;95313.94;1048310;28;1280;-69
2021/08/16 02:17:36;;;;;;;;;;;;;;;24.69;56.25;95315.84;1049250;28;1321;-69
2021/08/16 02:18:07;;;;;;;;;;;;;;;24.68;56.08;95312.41;1049291;28;1153;-68
2021/08/16 02:18:37;;;;;;;;;;;;;;;24.69;56.38;95313.19;1045038;28;840;-69
2021/08/16 02:19:07;;;;;;;;;;;;;;;24.69;56.45;95311.31;1041209;28;1249;-68
2021/08/16 02:19:38;;;;;;;;;;;;;;;24.70;56.47;95309.44;1041032;28;1555;-68
2021/08/16 02:20:08;;;;;;;;;;;;;;;24.69;56.24;95308.66;1041148;28;1226;-67
2021/08/16 02:20:39;;;;;;;;;;;;;;;24.69;56.46;95308.66;1042364;28;2470;-68
2021/08/16 02:21:09;;;;;;;;;;;;;;;24.70;56.41;95301.50;1048482;28;1211;-68
2021/08/16 02:21:39;;;;;;;;;;;;;;;24.70;56.40;95301.50;1044619;28;1921;-69
2021/08/16 02:22:10;;;;;;;;;;;;;;;24.70;56.33;95296.97;1040836;28;1151;-69
2021/08/16 02:22:40;;;;;;;;;;;;;;;24.70;56.53;95294.31;1040778;28;780;-68
2021/08/16 02:23:10;;;;;;;;;;;;;;;24.70;56.39;95293.53;1041292;28;1193;-68
2021/08/16 02:23:40;;;;;;;;;;;;;;;24.70;56.66;95294.31;1044896;28;1147;-68
2021/08/16 02:24:11;;;;;;;;;;;;;;;24.70;56.46;95294.31;1048970;28;1186;-69
2021/08/16 02:24:41;;;;;;;;;;;;;;;24.71;56.55;95289.81;1049416;28;773;-67
2021/08/16 02:25:12;;;;;;;;;;;;;;;24.71;56.50;95287.16;1049131;28;1184;-68
2021/08/16 02:25:42;;;;;;;;;;;;;;;24.70;56.62;95296.97;1047482;28;2390;-68
2021/08/16 02:26:12;;;;;;;;;;;;;;;24.71;56.69;95284.50;1048109;28;2492;-68
2021/08/16 02:26:43;;;;;;;;;;;;;;;24.71;56.46;95292.47;1049436;28;1037;-69
2021/08/16 02:27:13;;;;;;;;;;;;;;;24.70;56.77;95283.72;1048181;28;1385;-69
2021/08/16 02:27:44;;;;;;;;;;;;;;;24.71;56.60;95289.81;1049322;28;1075;-68
2021/08/16 02:28:17;;;;;;;;;;;;;;;24.71;56.60;95289.81;1045246;28;819;-69
2021/08/16 02:28:47;;;;;;;;;;;;;;;24.72;56.53;95288.69;1047987;28;1173;-68
2021/08/16 02:29:18;;;;;;;;;;;;;;;24.71;56.68;95287.91;1048856;28;1280;-68
2021/08/16 02:29:48;;;;;;;;;;;;;;;24.71;56.90;95287.91;1049357;28;1185;-68
2021/08/16 02:30:18;;;;;;;;;;;;;;;24.71;56.88;95287.91;1047421;28;1844;-69
2021/08/16 02:30:48;;;;;;;;;;;;;;;24.72;56.79;95292.13;1047672;28;2799;-68
2021/08/16 02:31:23;;;;;;;;;;;;;;;24.72;56.96;95294.00;1049212;28;1910;-69
2021/08/16 02:31:54;;;;;;;;;;;;;;;24.72;56.82;95297.44;1049231;28;1244;-69
2021/08/16 02:32:24;;;;;;;;;;;;;;;24.72;56.81;95299.31;1048789;28;1062;-68
2021/08/16 02:32:54;;;;;;;;;;;;;;;24.72;56.89;95286.84;1049267;28;1106;-69
2021/08/16 02:33:24;;;;;;;;;;;;;;;24.73;56.91;95292.94;1049175;28;1209;-68
2021/08/16 02:33:55;;;;;;;;;;;;;;;24.73;56.85;95284.97;1049085;28;1181;-69
2021/08/16 02:34:25;;;;;;;;;;;;;;;24.73;56.84;95284.97;1049546;28;834;-68
2021/08/16 02:34:55;;;;;;;;;;;;;;;24.72;56.94;95284.19;1049281;28;1170;-69
2021/08/16 02:35:25;;;;;;;;;;;;;;;24.72;56.88;95280.75;1048094;28;1460;-68
2021/08/16 02:35:56;;;;;;;;;;;;;;;24.73;56.91;95283.13;1042040;28;2898;-68
2021/08/16 02:36:26;;;;;;;;;;;;;;;24.73;56.94;95283.13;1044942;28;859;-69
2021/08/16 02:36:57;;;;;;;;;;;;;;;24.73;57.05;95277.03;1044668;28;1442;-68
2021/08/16 02:37:28;;;;;;;;;;;;;;;24.73;57.19;95277.81;1041335;28;1747;-69
2021/08/16 02:37:58;;;;;;;;;;;;;;;24.72;56.87;95280.75;1044026;28;1508;-69
2021/08/16 02:38:28;;;;;;;;;;;;;;;24.73;56.99;95277.03;1044850;28;1131;-68
2021/08/16 02:38:58;;;;;;;;;;;;;;;24.73;56.93;95277.03;1041970;28;1268;-68
2021/08/16 02:39:29;;;;;;;;;;;;;;;24.73;56.94;95277.81;1052817;28;785;-69
2021/08/16 02:39:59;;;;;;;;;;;;;;;24.73;56.85;95275.16;1051061;28;1110;-69
2021/08/16 02:40:29;;;;;;;;;;;;;;;24.74;56.93;95275.94;1048037;28;2412;-69
2021/08/16 02:40:59;;;;;;;;;;;;;;;24.74;57.15;95278.59;1048172;28;1872;-69
2021/08/16 02:41:30;;;;;;;;;;;;;;;24.74;57.01;95273.31;1049240;28;1140;-69
2021/08/16 02:42:00;;;;;;;;;;;;;;;24.74;57.08;95278.59;1049155;28;1165;-68